createdAt,value
2018-08-28T00:01:18.678Z,15.97
2018-08-28T00:03:46.700Z,15.85
2018-08-28T00:06:15.190Z,15.82
2018-08-28T00:08:43.579Z,15.71
2018-08-28T00:11:13.400Z,15.68
2018-08-28T00:13:41.470Z,15.68
2018-08-28T00:16:09.525Z,15.65
2018-08-28T00:18:37.588Z,15.71
2018-08-28T00:21:05.658Z,15.74
2018-08-28T00:23:33.798Z,15.78
2018-08-28T00:26:01.919Z,15.78
2018-08-28T00:28:31.053Z,15.79
2018-08-28T00:31:05.445Z,15.86
2018-08-28T00:33:33.592Z,15.90
2018-08-28T00:36:01.898Z,15.86
2018-08-28T00:38:30.272Z,15.86
2018-08-28T00:40:58.578Z,15.85
2018-08-28T00:43:26.945Z,15.90
2018-08-28T00:45:55.413Z,15.97
2018-08-28T00:48:23.492Z,15.92
2018-08-28T00:50:52.088Z,15.88
2018-08-28T00:53:25.521Z,15.95
2018-08-28T00:55:53.648Z,15.97
2018-08-28T00:58:22.249Z,15.87
2018-08-28T01:00:50.664Z,15.88
2018-08-28T01:03:18.752Z,15.92
2018-08-28T01:05:47.125Z,15.88
2018-08-28T01:08:15.285Z,15.90
2018-08-28T01:10:43.725Z,15.95
2018-08-28T01:13:12.155Z,15.93
2018-08-28T01:15:40.606Z,15.94
2018-08-28T01:18:08.766Z,15.90
2018-08-28T01:20:36.887Z,15.85
2018-08-28T01:23:04.972Z,15.81
2018-08-28T01:25:33.021Z,15.96
2018-08-28T01:28:01.132Z,15.88
2018-08-28T01:30:35.952Z,15.77
2018-08-28T01:33:05.790Z,15.83
2018-08-28T01:35:34.630Z,15.87
2018-08-28T01:38:03.023Z,15.89
2018-08-28T01:40:31.802Z,15.82
2018-08-28T01:43:00.160Z,15.74
2018-08-28T01:45:28.249Z,15.87
2018-08-28T01:47:56.285Z,15.84
2018-08-28T01:50:24.760Z,15.90
2018-08-28T01:52:52.869Z,15.84
2018-08-28T01:55:21.405Z,15.78
2018-08-28T01:57:49.451Z,15.79
2018-08-28T02:00:17.667Z,15.90
2018-08-28T02:02:45.852Z,15.90
2018-08-28T02:05:14.179Z,15.88
2018-08-28T02:07:42.772Z,15.85
2018-08-28T02:10:11.023Z,15.82
2018-08-28T02:12:39.187Z,15.83
2018-08-28T02:15:07.371Z,15.84
2018-08-28T02:17:35.447Z,15.83
2018-08-28T02:20:03.550Z,15.81
2018-08-28T02:22:31.753Z,15.79
2018-08-28T02:24:59.827Z,15.71
2018-08-28T02:27:28.192Z,15.87
2018-08-28T02:29:56.457Z,15.89
2018-08-28T02:32:24.739Z,15.82
2018-08-28T02:34:52.928Z,15.83
2018-08-28T02:37:21.180Z,15.83
2018-08-28T02:39:49.343Z,15.78
2018-08-28T02:42:17.410Z,15.74
2018-08-28T02:44:45.572Z,15.73
2018-08-28T02:47:15.138Z,15.78
2018-08-28T02:49:43.295Z,15.84
2018-08-28T02:52:11.653Z,15.85
2018-08-28T02:54:39.953Z,15.81
2018-08-28T02:57:08.619Z,15.74
2018-08-28T02:59:36.983Z,15.87
2018-08-28T03:02:05.580Z,15.75
2018-08-28T03:04:33.960Z,15.74
2018-08-28T03:07:02.425Z,15.81
2018-08-28T03:09:30.657Z,15.68
2018-08-28T03:11:58.783Z,15.74
2018-08-28T03:14:26.896Z,15.67
2018-08-28T03:16:55.147Z,15.75
2018-08-28T03:19:24.335Z,15.72
2018-08-28T03:21:52.892Z,15.73
2018-08-28T03:24:21.583Z,15.69
2018-08-28T03:26:49.900Z,15.74
2018-08-28T03:29:18.471Z,15.65
2018-08-28T03:31:46.704Z,15.69
2018-08-28T03:34:14.697Z,15.67
2018-08-28T03:36:42.820Z,15.72
2018-08-28T03:39:11.113Z,15.65
2018-08-28T03:41:39.347Z,15.68
2018-08-28T03:44:07.357Z,15.70
2018-08-28T03:46:35.553Z,15.66
2018-08-28T03:49:03.587Z,15.63
2018-08-28T03:51:31.741Z,15.56
2018-08-28T03:53:59.754Z,15.65
2018-08-28T03:56:27.757Z,15.68
2018-08-28T03:58:55.838Z,15.66
2018-08-28T04:01:23.912Z,15.71
2018-08-28T04:03:52.183Z,15.64
2018-08-28T04:06:20.398Z,15.68
2018-08-28T04:08:48.428Z,15.64
2018-08-28T04:11:17.422Z,15.59
2018-08-28T04:13:46.099Z,15.57
2018-08-28T04:16:14.112Z,15.56
2018-08-28T04:18:42.173Z,15.57
2018-08-28T04:21:10.187Z,15.62
2018-08-28T04:23:38.327Z,15.63
2018-08-28T04:26:06.382Z,15.68
2018-08-28T04:28:34.549Z,15.59
2018-08-28T04:31:02.615Z,15.56
2018-08-28T04:33:30.696Z,15.56
2018-08-28T04:35:58.678Z,15.53
2018-08-28T04:38:27.807Z,15.47
2018-08-28T04:40:55.884Z,15.42
2018-08-28T04:43:23.899Z,15.41
2018-08-28T04:45:51.916Z,15.42
2018-08-28T04:48:20.193Z,15.55
2018-08-28T04:50:48.259Z,15.55
2018-08-28T04:53:16.609Z,15.49
2018-08-28T04:55:44.716Z,15.46
2018-08-28T04:58:13.229Z,15.43
2018-08-28T05:00:41.280Z,15.43
2018-08-28T05:03:09.736Z,15.47
2018-08-28T05:05:38.266Z,15.46
2018-08-28T05:08:06.558Z,15.63
2018-08-28T05:10:34.687Z,15.63
2018-08-28T05:13:03.083Z,15.72
2018-08-28T05:15:37.741Z,15.85
2018-08-28T05:18:06.867Z,15.88
2018-08-28T05:20:35.188Z,15.98
2018-08-28T05:23:14.993Z,16.09
2018-08-28T05:25:43.198Z,16.11
2018-08-28T05:45:24.538Z,16.52
2018-08-28T05:47:52.780Z,16.79
2018-08-28T05:56:06.980Z,17.03
2018-08-28T05:58:36.352Z,17.09
2018-08-28T06:01:04.496Z,17.03
2018-08-28T06:03:33.168Z,17.02
2018-08-28T06:06:01.282Z,17.03
2018-08-28T06:08:36.123Z,16.91
2018-08-28T06:11:04.241Z,17.05
2018-08-28T06:13:33.885Z,17.04
2018-08-28T06:16:02.077Z,16.93
2018-08-28T06:18:30.414Z,17.19
2018-08-28T06:20:59.220Z,17.18
2018-08-28T06:23:27.338Z,17.24
2018-08-28T06:25:55.478Z,17.36
2018-08-28T06:28:23.723Z,17.31
2018-08-28T06:30:51.817Z,17.54
2018-08-28T06:33:20.028Z,17.61
2018-08-28T06:35:48.109Z,17.55
2018-08-28T06:38:16.099Z,17.71
2018-08-28T06:40:44.244Z,17.48
2018-08-28T06:43:12.407Z,17.73
2018-08-28T06:45:40.631Z,17.75
2018-08-28T06:48:09.759Z,17.92
2018-08-28T06:50:37.949Z,18.13
2018-08-28T06:53:06.145Z,18.13
2018-08-28T06:55:34.358Z,18.24
2018-08-28T06:58:02.311Z,18.16
2018-08-28T07:00:30.444Z,18.28
2018-08-28T07:02:58.516Z,18.33
2018-08-28T07:05:26.968Z,18.06
2018-08-28T07:07:55.152Z,18.02
2018-08-28T07:10:24.347Z,17.88
2018-08-28T07:12:52.522Z,17.92
2018-08-28T07:15:20.631Z,18.16
2018-08-28T07:17:48.791Z,18.41
2018-08-28T07:20:16.925Z,18.39
2018-08-28T07:22:45.167Z,18.49
2018-08-28T07:25:13.357Z,18.55
2018-08-28T07:27:41.540Z,18.65
2018-08-28T07:30:09.686Z,18.46
2018-08-28T07:32:37.847Z,18.20
2018-08-28T07:35:06.169Z,18.05
2018-08-28T07:37:34.352Z,17.85
2018-08-28T07:40:02.569Z,18.03
2018-08-28T07:42:30.659Z,18.12
2018-08-28T07:44:58.813Z,18.29
2018-08-28T07:47:26.938Z,18.63
2018-08-28T07:49:55.021Z,18.95
2018-08-28T07:52:23.158Z,18.92
2018-08-28T07:54:51.374Z,19.19
2018-08-28T07:57:19.546Z,19.37
2018-08-28T07:59:47.752Z,19.39
2018-08-28T08:02:15.934Z,18.87
2018-08-28T08:04:44.146Z,18.75
2018-08-28T08:07:12.444Z,18.96
2018-08-28T08:09:40.824Z,19.00
2018-08-28T08:12:08.884Z,18.92
2018-08-28T08:14:37.105Z,19.31
2018-08-28T08:17:05.289Z,19.76
2018-08-28T08:19:33.459Z,19.69
2018-08-28T08:22:01.600Z,19.96
2018-08-28T08:24:29.788Z,20.08
2018-08-28T08:26:58.147Z,20.63
2018-08-28T08:29:26.399Z,20.54
2018-08-28T08:31:54.607Z,20.93
2018-08-28T08:34:22.747Z,20.62
2018-08-28T08:36:51.052Z,20.58
2018-08-28T08:39:19.020Z,20.38
2018-08-28T08:41:47.060Z,20.92
2018-08-28T08:44:15.028Z,21.43
2018-08-28T08:46:42.978Z,20.64
2018-08-28T08:49:10.912Z,20.78
2018-08-28T08:51:38.894Z,20.81
2018-08-28T08:54:06.834Z,20.80
2018-08-28T08:56:34.997Z,20.93
2018-08-28T08:59:06.951Z,21.28
2018-08-28T09:01:34.974Z,22.68
2018-08-28T09:04:03.090Z,22.35
2018-08-28T09:06:31.193Z,22.38
2018-08-28T09:08:59.245Z,23.06
2018-08-28T09:11:27.235Z,23.36
2018-08-28T09:13:55.758Z,23.54
2018-08-28T09:16:23.697Z,23.13
2018-08-28T09:18:52.175Z,22.70
2018-08-28T09:21:20.094Z,21.88
2018-08-28T09:23:48.062Z,22.54
2018-08-28T09:26:16.076Z,22.54
2018-08-28T09:28:43.959Z,22.43
2018-08-28T09:31:11.938Z,22.65
2018-08-28T09:33:39.858Z,23.86
2018-08-28T09:36:07.950Z,24.38
2018-08-28T09:38:35.899Z,23.76
2018-08-28T09:41:03.940Z,22.30
2018-08-28T09:43:31.939Z,22.46
2018-08-28T09:45:59.920Z,22.73
2018-08-28T09:51:20.078Z,23.35
2018-08-28T09:53:53.434Z,23.58
2018-08-28T10:04:58.962Z,23.18
2018-08-28T10:33:21.166Z,23.97
2018-08-28T10:41:34.012Z,23.56
2018-08-28T11:27:29.684Z,22.28
2018-08-28T11:29:57.811Z,22.18
2018-08-28T11:32:26.259Z,21.96
2018-08-28T11:34:54.461Z,22.06
2018-08-28T11:37:22.679Z,21.90
2018-08-28T11:39:50.691Z,22.03
2018-08-28T11:42:18.833Z,22.19
2018-08-28T11:44:46.924Z,22.62
2018-08-28T11:47:15.376Z,22.74
2018-08-28T11:49:43.408Z,22.93
2018-08-28T11:52:12.502Z,22.95
2018-08-28T11:54:40.584Z,23.12
2018-08-28T11:57:08.665Z,23.17
2018-08-28T11:59:36.736Z,23.08
2018-08-28T12:02:04.931Z,22.98
2018-08-28T12:04:33.078Z,23.32
2018-08-28T12:07:01.412Z,23.09
2018-08-28T12:09:29.643Z,23.09
2018-08-28T12:11:57.788Z,23.04
2018-08-28T12:14:25.943Z,23.02
2018-08-28T12:16:54.313Z,23.16
2018-08-28T12:19:22.336Z,23.30
2018-08-28T12:21:50.816Z,23.05
2018-08-28T12:24:19.213Z,22.95
2018-08-28T12:28:00.622Z,23.08
2018-08-28T12:30:28.835Z,22.90
2018-08-28T12:32:57.021Z,22.85
2018-08-28T12:38:18.021Z,23.02
2018-08-28T12:44:12.979Z,23.03
2018-08-28T12:49:37.295Z,23.19
2018-08-28T13:01:09.226Z,24.53
2018-08-28T13:09:19.226Z,23.80
2018-08-28T13:11:47.141Z,23.78
2018-08-28T13:14:15.870Z,23.75
2018-08-28T13:16:46.774Z,23.98
2018-08-28T13:19:14.925Z,23.28
2018-08-28T13:21:42.853Z,22.72
2018-08-28T13:24:10.816Z,23.06
2018-08-28T13:26:38.980Z,23.19
2018-08-28T13:29:06.932Z,23.19
2018-08-28T13:31:39.981Z,23.20
2018-08-28T13:34:26.625Z,23.16
2018-08-28T13:36:57.018Z,23.40
2018-08-28T13:42:11.224Z,23.21
2018-08-28T13:44:39.428Z,23.31
2018-08-28T13:47:07.533Z,23.23
2018-08-28T13:49:35.619Z,23.32
2018-08-28T13:52:03.688Z,22.81
2018-08-28T13:54:40.446Z,22.79
2018-08-28T13:57:08.446Z,22.47
2018-08-28T13:59:36.314Z,22.29
2018-08-28T14:02:05.490Z,22.26
2018-08-28T14:04:46.387Z,22.18
2018-08-28T14:07:14.316Z,22.00
2018-08-28T14:09:42.373Z,22.16
2018-08-28T14:12:12.498Z,22.50
2018-08-28T14:14:40.576Z,22.54
2018-08-28T14:17:08.495Z,22.41
2018-08-28T14:19:36.498Z,22.41
2018-08-28T14:22:04.447Z,22.62
2018-08-28T14:24:32.590Z,22.77
2018-08-28T14:27:01.245Z,22.69
2018-08-28T14:32:21.894Z,23.01
2018-08-28T14:34:50.854Z,23.29
2018-08-28T14:37:18.854Z,23.36
2018-08-28T14:39:46.900Z,23.09
2018-08-28T14:42:14.884Z,22.88
2018-08-28T14:44:53.642Z,23.11
2018-08-28T14:47:22.441Z,22.55
2018-08-28T14:49:50.579Z,22.68
2018-08-28T14:52:18.552Z,22.61
2018-08-28T14:54:46.539Z,22.96
2018-08-28T14:57:15.535Z,23.02
2018-08-28T14:59:43.636Z,22.34
2018-08-28T15:02:12.770Z,22.04
2018-08-28T15:05:24.132Z,21.76
2018-08-28T15:07:52.722Z,21.67
2018-08-28T15:10:21.448Z,21.78
2018-08-28T15:15:43.054Z,21.50
2018-08-28T15:26:51.395Z,21.47
2018-08-28T15:47:52.139Z,21.95
2018-08-28T15:50:20.425Z,21.96
2018-08-28T15:56:14.370Z,22.09
2018-08-28T15:58:42.291Z,22.22
2018-08-28T16:01:10.282Z,22.09
2018-08-28T16:04:01.834Z,22.14
2018-08-28T16:06:30.670Z,21.94
2018-08-28T16:09:10.346Z,21.92
2018-08-28T16:17:45.330Z,22.19
2018-08-28T16:25:59.356Z,21.71
2018-08-28T16:28:28.061Z,21.65
2018-08-28T16:33:51.638Z,21.64
2018-08-28T16:36:32.383Z,21.43
2018-08-28T16:56:17.243Z,21.26
2018-08-28T18:56:43.984Z,18.08
2018-08-28T22:11:08.503Z,13.42
2018-08-28T22:25:12.785Z,14.11
2018-08-28T22:30:33.339Z,13.95
2018-08-28T22:39:34.055Z,13.68
2018-08-28T22:47:47.980Z,13.77
2018-08-28T22:50:16.910Z,13.73
2018-08-28T23:07:09.993Z,13.56
2018-08-28T23:15:24.354Z,13.69
2018-08-28T23:17:52.523Z,13.67
2018-08-28T23:20:20.754Z,13.65
2018-08-28T23:22:50.006Z,13.67
2018-08-28T23:25:19.035Z,13.72
2018-08-28T23:27:49.110Z,13.65
